Liberty Bay — YP-701 — position and weather

sailwx.info

Track history (hours):
 
Tides and Currents Weather Stations Pressure Air Temp Water Temp Dewpoint Dewpoint Depression Visibility Wind Speed Wind Dir Waves Ship Positions

Liberty Bay

Last reported at 2017-Sep-25 19:51 UTC. Time now 2017-Oct-23 02:45 UTC.
Position N 47°42' W 122°37'.
Warning: this ship's position is 27 days out of date.

Length 32 m; draft 2.5 m.

MMSI: 369970256.

Date/timePositionNaut miles runAvg speedWind from/ knotsBaromVisibWave heightAir tempDewpointWater temp
2017-Sep-25 19:51N 47°42' W 122°37'0 0.0
2017-Sep-25 19:31N 47°42' W 122°37'2 4.2
2017-Sep-25 18:58N 47°43' W 122°34'4 9.2
2017-Sep-25 18:30N 47°45' W 122°28'510.2
2017-Sep-25 18:00N 47°50' W 122°29'5 9.9
2017-Sep-25 17:30N 47°55' W 122°31'5 9.3
2017-Sep-25 17:01N 47°57' W 122°37'510.5
2017-Sep-25 16:30N 47°51' W 122°37'5 9.6
2017-Sep-25 16:00N 47°48' W 122°42'4 8.5
2017-Sep-25 15:30N 47°44' W 122°45'0 1.0
2017-Sep-25 15:01N 47°44' W 122°45'0 0.0
2017-Sep-25 14:31N 47°44' W 122°45'0 0.0
2017-Sep-25 14:00N 47°44' W 122°45'3 3.8
2017-Sep-25 13:07N 47°47' W 122°43'1 7.1
2017-Sep-25 13:00N 47°48' W 122°42'4 8.6
2017-Sep-25 12:30N 47°51' W 122°38'4 8.6
2017-Sep-25 12:00N 47°55' W 122°37'27 9.6
2017-Sep-25 09:11N 48°12' W 123°09'4 9.1
2017-Sep-25 08:47N 48°12' W 123°14'3 8.9
2017-Sep-25 08:30N 48°12' W 123°18'4 8.8
2017-Sep-25 08:00N 48°13' W 123°25'4 8.9
2017-Sep-25 07:31N 48°13' W 123°31'4 8.2
2017-Sep-25 07:00N 48°12' W 123°37'6 8.7
2017-Sep-25 06:18N 48°12' W 123°47'8 9.5
2017-Sep-25 05:30N 48°13' W 123°58'510.0
2017-Sep-25 05:00N 48°15' W 124°05'5 9.6
2017-Sep-25 04:31N 48°17' W 124°11'5 9.7
2017-Sep-25 04:00N 48°19' W 124°18'5 9.8
2017-Sep-25 03:31N 48°21' W 124°24'510.3
2017-Sep-25 03:01N 48°24' W 124°31'611.1
2017-Sep-25 02:31N 48°26' W 124°39'510.7
2017-Sep-25 02:01N 48°24' W 124°47'611.6
2017-Sep-25 01:28N 48°18' W 124°50'8311.0
2017-Sep-24 17:52N 46°56' W 124°25'511.6
2017-Sep-24 17:28N 46°52' W 124°23'911.2
2017-Sep-24 16:39N 46°43' W 124°20'211.5
2017-Sep-24 16:30N 46°41' W 124°19'510.9
2017-Sep-24 16:01N 46°36' W 124°18'611.1
2017-Sep-24 15:31N 46°30' W 124°17'511.0
2017-Sep-24 15:01N 46°25' W 124°16'510.6
2017-Sep-24 14:31N 46°20' W 124°15'510.2
2017-Sep-24 14:00N 46°15' W 124°12'4 8.1
2017-Sep-24 13:30N 46°14' W 124°07'510.2
2017-Sep-24 13:01N 46°14' W 123°59'7 9.4
2017-Sep-24 12:18N 46°12' W 123°51'3 9.9
2017-Sep-24 12:01N 46°13' W 123°47'611.1
2017-Sep-24 11:30N 46°15' W 123°40'510.5
2017-Sep-24 11:00N 46°16' W 123°32'5 9.3
2017-Sep-24 10:30N 46°14' W 123°26'510.6
2017-Sep-24 10:00N 46°09' W 123°23'611.7
2017-Sep-24 09:30N 46°10' W 123°15'612.1
2017-Sep-24 09:00N 46°11' W 123°06'713.4
2017-Sep-24 08:30N 46°07' W 122°58'612.1
2017-Sep-24 08:00N 46°02' W 122°53'612.6
2017-Sep-24 07:30N 45°57' W 122°49'612.8
2017-Sep-24 07:00N 45°50' W 122°47'612.3
2017-Sep-24 06:30N 45°44' W 122°46'611.2
2017-Sep-24 06:00N 45°39' W 122°45'3 6.2
2017-Sep-24 05:30N 45°37' W 122°41'611.3
2017-Sep-24 05:00N 45°36' W 122°33'611.2
2017-Sep-24 04:30N 45°34' W 122°26'510.2
2017-Sep-24 04:00N 45°33' W 122°19'611.5
2017-Sep-24 03:30N 45°35' W 122°11'612.0
2017-Sep-24 03:00N 45°37' W 122°03'  
2017-Sep-21 22:58N 45°37' W 122°01'5 8.2
2017-Sep-21 22:24N 45°35' W 122°07'3 8.2
2017-Sep-21 22:00N 45°34' W 122°12'4 8.0
2017-Sep-21 21:30N 45°33' W 122°17'4 7.4
2017-Sep-21 21:00N 45°34' W 122°22'4 7.1
2017-Sep-21 20:29N 45°34' W 122°27'4 7.6
2017-Sep-21 20:00N 45°35' W 122°32'4 7.3
2017-Sep-21 19:31N 45°36' W 122°37'4 7.8
2017-Sep-21 19:00N 45°38' W 122°42'2 2.3
2017-Sep-21 18:01N 45°39' W 122°45'0 0.0
2017-Sep-21 18:00N 45°39' W 122°45'0 0.0
2017-Sep-21 17:30N 45°39' W 122°45'0 0.9
2017-Sep-21 17:00N 45°39' W 122°45'3 6.4
2017-Sep-21 16:30N 45°42' W 122°46'4 7.6
2017-Sep-21 16:00N 45°46' W 122°46'4 7.4
2017-Sep-21 15:31N 45°49' W 122°48'3 6.7
2017-Sep-21 15:00N 45°53' W 122°47'4 7.5
2017-Sep-21 14:30N 45°56' W 122°48'4 7.3
2017-Sep-21 14:00N 45°59' W 122°51'3 5.1
2017-Sep-21 13:31N 46°02' W 122°52'3 5.4
2017-Sep-21 13:00N 46°04' W 122°53'3 5.5
2017-Sep-21 12:30N 46°06' W 122°57'3 5.7
2017-Sep-21 12:00N 46°08' W 122°60'3 5.9
2017-Sep-21 11:31N 46°09' W 123°03'3 5.9
2017-Sep-21 11:00N 46°11' W 123°07'3 5.7
2017-Sep-21 10:31N 46°11' W 123°11'3 5.8
2017-Sep-21 10:00N 46°10' W 123°15'3 6.0
2017-Sep-21 09:30N 46°09' W 123°19'3 6.9
2017-Sep-21 09:00N 46°09' W 123°24'4 7.8
2017-Sep-21 08:30N 46°13' W 123°25'4 8.1
2017-Sep-21 08:01N 46°16' W 123°29'4 8.4
2017-Sep-21 07:30N 46°15' W 123°35'4 8.6
2017-Sep-21 07:00N 46°15' W 123°41'5 9.7
2017-Sep-21 06:30N 46°13' W 123°47'5 9.4
2017-Sep-21 06:00N 46°11' W 123°54'5 9.6
2017-Sep-21 05:30N 46°14' W 123°59'3 7.0
2017-Sep-21 05:00N 46°15' W 124°04'4 7.8
2017-Sep-21 04:30N 46°14' W 124°09'4 7.4
2017-Sep-21 04:00N 46°13' W 124°14'3 6.4
2017-Sep-21 03:30N 46°14' W 124°19'5 9.0
2017-Sep-21 03:00N 46°17' W 124°23'5 9.1
2017-Sep-21 02:30N 46°21' W 124°28'8 9.8
2017-Sep-21 01:40N 46°28' W 124°34'1 8.6
2017-Sep-21 01:30N 46°29' W 124°35'5 9.1
2017-Sep-21 01:00N 46°33' W 124°38'5 9.3
2017-Sep-21 00:30N 46°37' W 124°41'5 9.0
2017-Sep-21 00:00N 46°42' W 124°42'5 9.3
2017-Sep-20 23:30N 46°46' W 124°44'90 9.2
2017-Sep-20 13:43N 48°15' W 125°02'2 9.8
2017-Sep-20 13:29N 48°17' W 125°01'6 9.5
2017-Sep-20 12:53N 48°22' W 124°58'4 9.4
2017-Sep-20 12:25N 48°26' W 124°54'4 8.8
2017-Sep-20 12:00N 48°27' W 124°49'4 9.0
2017-Sep-20 11:30N 48°26' W 124°42'5 9.0
2017-Sep-20 11:00N 48°24' W 124°36'4 8.5
2017-Sep-20 10:30N 48°22' W 124°30'5 9.2
2017-Sep-20 09:59N 48°21' W 124°24'5 9.1
2017-Sep-20 09:26N 48°18' W 124°17'3 7.8
2017-Sep-20 09:00N 48°17' W 124°12'10 8.5
2017-Sep-20 07:50N 48°13' W 123°59'3 9.0
2017-Sep-20 07:29N 48°12' W 123°54'510.1
2017-Sep-20 06:58N 48°12' W 123°47'511.3
2017-Sep-20 06:29N 48°11' W 123°38'511.1
2017-Sep-20 06:00N 48°11' W 123°30'510.4
2017-Sep-20 05:30N 48°09' W 123°23'611.4
2017-Sep-20 05:00N 48°11' W 123°15'611.7
2017-Sep-20 04:30N 48°13' W 123°06'2310.5
2017-Sep-20 02:20N 48°01' W 122°37'411.4
2017-Sep-20 02:00N 47°58' W 122°34'510.5
2017-Sep-20 01:31N 47°55' W 122°28'510.1
2017-Sep-20 01:01N 47°50' W 122°27'510.5
2017-Sep-20 00:31N 47°45' W 122°26'5 9.8
2017-Sep-20 00:01N 47°40' W 122°27'5 9.9
2017-Sep-19 23:31N 47°35' W 122°28'3 6.7
2017-Sep-19 23:01N 47°35' W 122°33'4 7.0
2017-Sep-19 22:31N 47°33' W 122°37'0 0.6
2017-Sep-19 22:01N 47°33' W 122°38'0 0.4
2017-Sep-19 21:31N 47°33' W 122°38'0 0.6
2017-Sep-19 21:01N 47°33' W 122°38'4 7.6
2017-Sep-19 20:30N 47°36' W 122°35'5 9.9
2017-Sep-19 20:00N 47°41' W 122°36'1 2.4
2017-Sep-19 19:30N 47°42' W 122°37'0 0.0
2017-Sep-19 19:00N 47°42' W 122°37'0 0.0
2017-Sep-18 19:47N 47°42' W 122°37'4 8.1
2017-Sep-18 19:20N 47°39' W 122°35'411.2
2017-Sep-18 19:01N 47°35' W 122°35'2 4.6
2017-Sep-18 18:30N 47°34' W 122°32'0 0.0
2017-Sep-18 18:00N 47°34' W 122°32'0 0.0
2017-Sep-18 17:30N 47°34' W 122°32'0 0.0
2017-Sep-18 17:00N 47°34' W 122°32'0 0.0
2017-Sep-18 16:30N 47°34' W 122°32'0 0.0
2017-Sep-18 16:00N 47°34' W 122°32'1 1.3
2017-Sep-18 15:30N 47°34' W 122°31'4 7.6
2017-Sep-18 15:00N 47°37' W 122°29'5 9.9
2017-Sep-18 14:30N 47°42' W 122°28'5 9.6
2017-Sep-18 14:00N 47°47' W 122°28'510.1
2017-Sep-18 13:30N 47°52' W 122°30'4 8.8
2017-Sep-18 13:00N 47°56' W 122°32'30 8.8
2017-Sep-18 09:34N 48°13' W 123°10'210.6
2017-Sep-18 09:20N 48°12' W 123°14'410.7
2017-Sep-18 09:00N 48°13' W 123°19'611.5
2017-Sep-18 08:30N 48°12' W 123°28'610.8
2017-Sep-18 07:54N 48°13' W 123°38'410.2
2017-Sep-18 07:30N 48°13' W 123°44'1010.8
2017-Sep-18 06:36N 48°14' W 123°58'211.6
2017-Sep-18 06:27N 48°14' W 124°01'511.4
2017-Sep-18 06:00N 48°16' W 124°08'510.9
2017-Sep-18 05:30N 48°19' W 124°15'510.3
2017-Sep-18 05:00N 48°21' W 124°22'5 9.8
2017-Sep-18 04:30N 48°23' W 124°29'5 9.9
2017-Sep-18 04:00N 48°25' W 124°35'510.2
2017-Sep-18 03:30N 48°26' W 124°43'5 9.7
2017-Sep-18 02:59N 48°24' W 124°50'610.1
2017-Sep-18 02:23N 48°19' W 124°55'510.5
2017-Sep-18 01:57N 48°15' W 124°59'  
Track history (hours):
 
Tides and Currents Weather Stations Pressure Air Temp Water Temp Dewpoint Dewpoint Depression Visibility Wind Speed Wind Dir Waves Ship Positions

Liberty Bay

Last reported at 2017-Sep-25 19:51 UTC. Time now 2017-Oct-23 02:45 UTC.
Position N 47°42' W 122°37'.
Warning: this ship's position is 27 days out of date.

Length 32 m; draft 2.5 m.

MMSI: 369970256.

Date/timePositionNaut miles runAvg speedWind from/ knotsBaromVisibWave heightAir tempDewpointWater temp
2017-Sep-25 19:51N 47°42' W 122°37'0 0.0
2017-Sep-25 19:31N 47°42' W 122°37'2 4.2
2017-Sep-25 18:58N 47°43' W 122°34'4 9.2
2017-Sep-25 18:30N 47°45' W 122°28'510.2
2017-Sep-25 18:00N 47°50' W 122°29'5 9.9
2017-Sep-25 17:30N 47°55' W 122°31'5 9.3
2017-Sep-25 17:01N 47°57' W 122°37'510.5
2017-Sep-25 16:30N 47°51' W 122°37'5 9.6
2017-Sep-25 16:00N 47°48' W 122°42'4 8.5
2017-Sep-25 15:30N 47°44' W 122°45'0 1.0
2017-Sep-25 15:01N 47°44' W 122°45'0 0.0
2017-Sep-25 14:31N 47°44' W 122°45'0 0.0
2017-Sep-25 14:00N 47°44' W 122°45'3 3.8
2017-Sep-25 13:07N 47°47' W 122°43'1 7.1
2017-Sep-25 13:00N 47°48' W 122°42'4 8.6
2017-Sep-25 12:30N 47°51' W 122°38'4 8.6
2017-Sep-25 12:00N 47°55' W 122°37'27 9.6
2017-Sep-25 09:11N 48°12' W 123°09'4 9.1
2017-Sep-25 08:47N 48°12' W 123°14'3 8.9
2017-Sep-25 08:30N 48°12' W 123°18'4 8.8
2017-Sep-25 08:00N 48°13' W 123°25'4 8.9
2017-Sep-25 07:31N 48°13' W 123°31'4 8.2
2017-Sep-25 07:00N 48°12' W 123°37'6 8.7
2017-Sep-25 06:18N 48°12' W 123°47'8 9.5
2017-Sep-25 05:30N 48°13' W 123°58'510.0
2017-Sep-25 05:00N 48°15' W 124°05'5 9.6
2017-Sep-25 04:31N 48°17' W 124°11'5 9.7
2017-Sep-25 04:00N 48°19' W 124°18'5 9.8
2017-Sep-25 03:31N 48°21' W 124°24'510.3
2017-Sep-25 03:01N 48°24' W 124°31'611.1
2017-Sep-25 02:31N 48°26' W 124°39'510.7
2017-Sep-25 02:01N 48°24' W 124°47'611.6
2017-Sep-25 01:28N 48°18' W 124°50'8311.0
2017-Sep-24 17:52N 46°56' W 124°25'511.6
2017-Sep-24 17:28N 46°52' W 124°23'911.2
2017-Sep-24 16:39N 46°43' W 124°20'211.5
2017-Sep-24 16:30N 46°41' W 124°19'510.9
2017-Sep-24 16:01N 46°36' W 124°18'611.1
2017-Sep-24 15:31N 46°30' W 124°17'511.0
2017-Sep-24 15:01N 46°25' W 124°16'510.6
2017-Sep-24 14:31N 46°20' W 124°15'510.2
2017-Sep-24 14:00N 46°15' W 124°12'4 8.1
2017-Sep-24 13:30N 46°14' W 124°07'510.2
2017-Sep-24 13:01N 46°14' W 123°59'7 9.4
2017-Sep-24 12:18N 46°12' W 123°51'3 9.9
2017-Sep-24 12:01N 46°13' W 123°47'611.1
2017-Sep-24 11:30N 46°15' W 123°40'510.5
2017-Sep-24 11:00N 46°16' W 123°32'5 9.3
2017-Sep-24 10:30N 46°14' W 123°26'510.6
2017-Sep-24 10:00N 46°09' W 123°23'611.7
2017-Sep-24 09:30N 46°10' W 123°15'612.1
2017-Sep-24 09:00N 46°11' W 123°06'713.4
2017-Sep-24 08:30N 46°07' W 122°58'612.1
2017-Sep-24 08:00N 46°02' W 122°53'612.6
2017-Sep-24 07:30N 45°57' W 122°49'612.8
2017-Sep-24 07:00N 45°50' W 122°47'612.3
2017-Sep-24 06:30N 45°44' W 122°46'611.2
2017-Sep-24 06:00N 45°39' W 122°45'3 6.2
2017-Sep-24 05:30N 45°37' W 122°41'611.3
2017-Sep-24 05:00N 45°36' W 122°33'611.2
2017-Sep-24 04:30N 45°34' W 122°26'510.2
2017-Sep-24 04:00N 45°33' W 122°19'611.5
2017-Sep-24 03:30N 45°35' W 122°11'612.0
2017-Sep-24 03:00N 45°37' W 122°03'  
2017-Sep-21 22:58N 45°37' W 122°01'5 8.2
2017-Sep-21 22:24N 45°35' W 122°07'3 8.2
2017-Sep-21 22:00N 45°34' W 122°12'4 8.0
2017-Sep-21 21:30N 45°33' W 122°17'4 7.4
2017-Sep-21 21:00N 45°34' W 122°22'4 7.1
2017-Sep-21 20:29N 45°34' W 122°27'4 7.6
2017-Sep-21 20:00N 45°35' W 122°32'4 7.3
2017-Sep-21 19:31N 45°36' W 122°37'4 7.8
2017-Sep-21 19:00N 45°38' W 122°42'2 2.3
2017-Sep-21 18:01N 45°39' W 122°45'0 0.0
2017-Sep-21 18:00N 45°39' W 122°45'0 0.0
2017-Sep-21 17:30N 45°39' W 122°45'0 0.9
2017-Sep-21 17:00N 45°39' W 122°45'3 6.4
2017-Sep-21 16:30N 45°42' W 122°46'4 7.6
2017-Sep-21 16:00N 45°46' W 122°46'4 7.4
2017-Sep-21 15:31N 45°49' W 122°48'3 6.7
2017-Sep-21 15:00N 45°53' W 122°47'4 7.5
2017-Sep-21 14:30N 45°56' W 122°48'4 7.3
2017-Sep-21 14:00N 45°59' W 122°51'3 5.1
2017-Sep-21 13:31N 46°02' W 122°52'3 5.4
2017-Sep-21 13:00N 46°04' W 122°53'3 5.5
2017-Sep-21 12:30N 46°06' W 122°57'3 5.7
2017-Sep-21 12:00N 46°08' W 122°60'3 5.9
2017-Sep-21 11:31N 46°09' W 123°03'3 5.9
2017-Sep-21 11:00N 46°11' W 123°07'3 5.7
2017-Sep-21 10:31N 46°11' W 123°11'3 5.8
2017-Sep-21 10:00N 46°10' W 123°15'3 6.0
2017-Sep-21 09:30N 46°09' W 123°19'3 6.9
2017-Sep-21 09:00N 46°09' W 123°24'4 7.8
2017-Sep-21 08:30N 46°13' W 123°25'4 8.1
2017-Sep-21 08:01N 46°16' W 123°29'4 8.4
2017-Sep-21 07:30N 46°15' W 123°35'4 8.6
2017-Sep-21 07:00N 46°15' W 123°41'5 9.7
2017-Sep-21 06:30N 46°13' W 123°47'5 9.4
2017-Sep-21 06:00N 46°11' W 123°54'5 9.6
2017-Sep-21 05:30N 46°14' W 123°59'3 7.0
2017-Sep-21 05:00N 46°15' W 124°04'4 7.8
2017-Sep-21 04:30N 46°14' W 124°09'4 7.4
2017-Sep-21 04:00N 46°13' W 124°14'3 6.4
2017-Sep-21 03:30N 46°14' W 124°19'5 9.0
2017-Sep-21 03:00N 46°17' W 124°23'5 9.1
2017-Sep-21 02:30N 46°21' W 124°28'8 9.8
2017-Sep-21 01:40N 46°28' W 124°34'1 8.6
2017-Sep-21 01:30N 46°29' W 124°35'5 9.1
2017-Sep-21 01:00N 46°33' W 124°38'5 9.3
2017-Sep-21 00:30N 46°37' W 124°41'5 9.0
2017-Sep-21 00:00N 46°42' W 124°42'5 9.3
2017-Sep-20 23:30N 46°46' W 124°44'90 9.2
2017-Sep-20 13:43N 48°15' W 125°02'2 9.8
2017-Sep-20 13:29N 48°17' W 125°01'6 9.5
2017-Sep-20 12:53N 48°22' W 124°58'4 9.4
2017-Sep-20 12:25N 48°26' W 124°54'4 8.8
2017-Sep-20 12:00N 48°27' W 124°49'4 9.0
2017-Sep-20 11:30N 48°26' W 124°42'5 9.0
2017-Sep-20 11:00N 48°24' W 124°36'4 8.5
2017-Sep-20 10:30N 48°22' W 124°30'5 9.2
2017-Sep-20 09:59N 48°21' W 124°24'5 9.1
2017-Sep-20 09:26N 48°18' W 124°17'3 7.8
2017-Sep-20 09:00N 48°17' W 124°12'10 8.5
2017-Sep-20 07:50N 48°13' W 123°59'3 9.0
2017-Sep-20 07:29N 48°12' W 123°54'510.1
2017-Sep-20 06:58N 48°12' W 123°47'511.3
2017-Sep-20 06:29N 48°11' W 123°38'511.1
2017-Sep-20 06:00N 48°11' W 123°30'510.4
2017-Sep-20 05:30N 48°09' W 123°23'611.4
2017-Sep-20 05:00N 48°11' W 123°15'611.7
2017-Sep-20 04:30N 48°13' W 123°06'2310.5
2017-Sep-20 02:20N 48°01' W 122°37'411.4
2017-Sep-20 02:00N 47°58' W 122°34'510.5
2017-Sep-20 01:31N 47°55' W 122°28'510.1
2017-Sep-20 01:01N 47°50' W 122°27'510.5
2017-Sep-20 00:31N 47°45' W 122°26'5 9.8
2017-Sep-20 00:01N 47°40' W 122°27'5 9.9
2017-Sep-19 23:31N 47°35' W 122°28'3 6.7
2017-Sep-19 23:01N 47°35' W 122°33'4 7.0
2017-Sep-19 22:31N 47°33' W 122°37'0 0.6
2017-Sep-19 22:01N 47°33' W 122°38'0 0.4
2017-Sep-19 21:31N 47°33' W 122°38'0 0.6
2017-Sep-19 21:01N 47°33' W 122°38'4 7.6
2017-Sep-19 20:30N 47°36' W 122°35'5 9.9
2017-Sep-19 20:00N 47°41' W 122°36'1 2.4
2017-Sep-19 19:30N 47°42' W 122°37'0 0.0
2017-Sep-19 19:00N 47°42' W 122°37'0 0.0
2017-Sep-18 19:47N 47°42' W 122°37'4 8.1
2017-Sep-18 19:20N 47°39' W 122°35'411.2
2017-Sep-18 19:01N 47°35' W 122°35'2 4.6
2017-Sep-18 18:30N 47°34' W 122°32'0 0.0
2017-Sep-18 18:00N 47°34' W 122°32'0 0.0
2017-Sep-18 17:30N 47°34' W 122°32'0 0.0
2017-Sep-18 17:00N 47°34' W 122°32'0 0.0
2017-Sep-18 16:30N 47°34' W 122°32'0 0.0
2017-Sep-18 16:00N 47°34' W 122°32'1 1.3
2017-Sep-18 15:30N 47°34' W 122°31'4 7.6
2017-Sep-18 15:00N 47°37' W 122°29'5 9.9
2017-Sep-18 14:30N 47°42' W 122°28'5 9.6
2017-Sep-18 14:00N 47°47' W 122°28'510.1
2017-Sep-18 13:30N 47°52' W 122°30'4 8.8
2017-Sep-18 13:00N 47°56' W 122°32'30 8.8
2017-Sep-18 09:34N 48°13' W 123°10'210.6
2017-Sep-18 09:20N 48°12' W 123°14'410.7
2017-Sep-18 09:00N 48°13' W 123°19'611.5
2017-Sep-18 08:30N 48°12' W 123°28'610.8
2017-Sep-18 07:54N 48°13' W 123°38'410.2
2017-Sep-18 07:30N 48°13' W 123°44'1010.8
2017-Sep-18 06:36N 48°14' W 123°58'211.6
2017-Sep-18 06:27N 48°14' W 124°01'511.4
2017-Sep-18 06:00N 48°16' W 124°08'510.9
2017-Sep-18 05:30N 48°19' W 124°15'510.3
2017-Sep-18 05:00N 48°21' W 124°22'5 9.8
2017-Sep-18 04:30N 48°23' W 124°29'5 9.9
2017-Sep-18 04:00N 48°25' W 124°35'510.2
2017-Sep-18 03:30N 48°26' W 124°43'5 9.7
2017-Sep-18 02:59N 48°24' W 124°50'610.1
2017-Sep-18 02:23N 48°19' W 124°55'510.5
2017-Sep-18 01:57N 48°15' W 124°59'  

Dump ship's entire track history